createdAt,value
2019-02-06T01:47:50.512Z,27.73
2019-02-06T01:50:21.102Z,26.73
2019-02-06T01:52:51.423Z,29.27
2019-02-06T01:55:21.457Z,27.67
2019-02-06T01:57:51.547Z,29.63
2019-02-06T02:00:22.850Z,23.83
2019-02-06T02:02:52.991Z,27.30
2019-02-06T02:05:23.373Z,26.57
2019-02-06T02:07:53.416Z,28.93
2019-02-06T02:10:23.674Z,29.60
2019-02-06T02:12:53.937Z,34.80
2019-02-06T02:15:24.065Z,38.57
2019-02-06T02:17:54.972Z,34.37
2019-02-06T02:20:25.183Z,30.80
2019-02-06T02:22:55.367Z,32.80
2019-02-06T02:25:25.372Z,35.20
2019-02-06T02:27:55.678Z,34.73
2019-02-06T02:30:42.518Z,36.20
2019-02-06T02:33:12.735Z,35.80
2019-02-06T02:35:43.231Z,40.00
2019-02-06T02:38:13.650Z,43.23
2019-02-06T02:40:44.269Z,42.60
2019-02-06T02:43:14.567Z,48.07
2019-02-06T02:45:44.662Z,45.10
2019-02-06T02:48:15.057Z,50.17
2019-02-06T02:50:45.581Z,48.23
2019-02-06T02:53:15.611Z,47.57
2019-02-06T02:55:45.603Z,46.00
2019-02-06T02:58:15.606Z,47.97
2019-02-06T03:01:03.533Z,48.93
2019-02-06T03:03:59.035Z,44.37
2019-02-06T03:06:29.129Z,48.50
2019-02-06T03:08:59.768Z,38.87
2019-02-06T03:11:30.056Z,44.80
2019-02-06T03:14:00.249Z,41.90
2019-02-06T03:16:30.650Z,42.40
2019-02-06T03:19:00.711Z,38.10
2019-02-06T03:21:30.835Z,44.10
2019-02-06T03:24:01.067Z,39.80
2019-02-06T03:26:31.392Z,37.33
2019-02-06T03:29:01.727Z,44.33
2019-02-06T03:31:32.380Z,40.97
2019-02-06T03:34:05.040Z,42.70
2019-02-06T03:36:40.330Z,37.93
2019-02-06T03:39:09.278Z,44.57
2019-02-06T03:41:39.417Z,45.33
2019-02-06T03:44:09.951Z,40.90
2019-02-06T03:46:39.955Z,44.57
2019-02-06T03:49:10.111Z,39.80
2019-02-06T03:51:41.589Z,43.67
2019-02-06T03:54:12.197Z,45.20
2019-02-06T03:56:42.430Z,41.43
2019-02-06T03:59:12.483Z,45.73
2019-02-06T04:01:43.141Z,48.00
2019-02-06T04:04:13.344Z,42.70
2019-02-06T04:06:54.426Z,47.03
2019-02-06T04:09:15.001Z,43.27
2019-02-06T04:11:45.393Z,41.70
2019-02-06T04:14:15.556Z,42.93
2019-02-06T04:16:45.966Z,43.67
2019-02-06T04:19:16.111Z,42.23
2019-02-06T04:21:46.148Z,43.57
2019-02-06T04:24:16.299Z,41.20
2019-02-06T04:26:46.643Z,44.63
2019-02-06T04:29:18.226Z,50.07
2019-02-06T04:31:48.309Z,45.47
2019-02-06T04:34:21.366Z,40.63
2019-02-06T04:36:51.425Z,42.53
2019-02-06T04:39:21.880Z,48.63
2019-02-06T04:41:52.065Z,41.50
2019-02-06T04:44:23.871Z,44.93
2019-02-06T04:46:53.801Z,43.77
2019-02-06T04:49:24.750Z,41.97
2019-02-06T04:51:54.909Z,44.87
2019-02-06T04:54:25.178Z,52.33
2019-02-06T04:56:55.139Z,47.83
2019-02-06T04:59:25.171Z,49.80
2019-02-06T05:01:55.137Z,46.10
2019-02-06T05:04:25.669Z,46.93
2019-02-06T05:06:55.771Z,40.40
2019-02-06T05:09:26.023Z,44.43
2019-02-06T05:11:56.119Z,42.13
2019-02-06T05:14:26.162Z,46.30
2019-02-06T05:16:56.278Z,41.60
2019-02-06T05:19:26.421Z,45.20
2019-02-06T05:21:56.523Z,47.83
2019-02-06T05:24:26.523Z,48.70
2019-02-06T05:26:57.165Z,44.07
2019-02-06T05:29:27.354Z,47.50
2019-02-06T05:31:57.271Z,42.03
2019-02-06T05:34:27.205Z,46.07
2019-02-06T05:36:57.850Z,43.73
2019-02-06T05:39:27.961Z,39.67
2019-02-06T05:41:57.948Z,42.80
2019-02-06T05:44:27.977Z,39.43
2019-02-06T05:46:58.077Z,44.30
2019-02-06T05:49:28.162Z,44.77
2019-02-06T05:51:58.741Z,42.07
2019-02-06T05:54:29.628Z,42.60
2019-02-06T05:57:00.010Z,41.73
2019-02-06T05:59:30.092Z,42.43
2019-02-06T06:02:00.191Z,42.93
2019-02-06T06:04:30.302Z,42.33
2019-02-06T06:07:00.499Z,45.67
2019-02-06T06:09:30.512Z,41.67
2019-02-06T06:12:00.530Z,41.60
2019-02-06T06:14:30.679Z,41.13
2019-02-06T06:17:00.735Z,43.37
2019-02-06T06:19:30.773Z,40.10
2019-02-06T06:22:01.112Z,44.83
2019-02-06T06:24:31.223Z,46.87
2019-02-06T06:27:01.224Z,36.50
2019-02-06T06:29:31.330Z,40.20
2019-02-06T06:32:01.693Z,42.13
2019-02-06T06:34:32.313Z,43.60
2019-02-06T06:37:02.633Z,39.93
2019-02-06T06:39:32.636Z,49.03
2019-02-06T06:42:02.877Z,38.07
2019-02-06T06:44:33.818Z,38.10
2019-02-06T06:47:03.773Z,38.17
2019-02-06T06:49:33.878Z,39.03
2019-02-06T06:52:04.202Z,41.10
2019-02-06T06:54:34.526Z,38.37
2019-02-06T06:57:04.633Z,42.23
2019-02-06T06:59:34.990Z,37.00
2019-02-06T07:02:05.266Z,38.50
2019-02-06T07:04:35.714Z,32.37
2019-02-06T07:07:05.836Z,33.57
2019-02-06T07:09:36.241Z,37.93
2019-02-06T07:12:06.357Z,32.30
2019-02-06T07:14:36.565Z,35.37
2019-02-06T07:17:06.713Z,31.20
2019-02-06T07:19:36.951Z,33.13
2019-02-06T07:22:07.384Z,27.03
2019-02-06T07:24:38.195Z,33.67
2019-02-06T07:27:08.377Z,26.53
2019-02-06T07:29:38.537Z,31.70
2019-02-06T07:32:09.489Z,32.37
2019-02-06T07:34:39.741Z,28.20
2019-02-06T07:37:10.177Z,32.50
2019-02-06T07:39:40.254Z,28.57
2019-02-06T07:42:10.226Z,25.30
2019-02-06T07:44:40.655Z,26.20
2019-02-06T07:47:11.211Z,26.27
2019-02-06T07:49:41.437Z,25.00
2019-02-06T07:52:12.015Z,29.60
2019-02-06T07:54:44.812Z,29.37
2019-02-06T07:57:14.850Z,27.53
2019-02-06T07:59:45.281Z,24.73
2019-02-06T08:02:15.256Z,26.10
2019-02-06T08:04:46.745Z,23.40
2019-02-06T08:07:16.721Z,26.50
2019-02-06T08:09:47.085Z,23.90
2019-02-06T08:12:17.546Z,26.07
2019-02-06T08:14:47.731Z,25.10
2019-02-06T08:17:18.107Z,24.50
2019-02-06T08:19:48.329Z,23.73
2019-02-06T08:22:18.471Z,20.93
2019-02-06T08:24:48.801Z,22.53
2019-02-06T08:27:19.406Z,22.40
2019-02-06T08:29:50.098Z,23.83
2019-02-06T08:32:20.202Z,20.57
2019-02-06T08:34:50.242Z,20.70
2019-02-06T08:37:20.277Z,21.23
2019-02-06T08:39:50.162Z,20.43
2019-02-06T08:42:20.277Z,20.50
2019-02-06T08:44:50.550Z,21.23
2019-02-06T08:47:20.621Z,23.07
2019-02-06T08:49:50.760Z,20.30
2019-02-06T08:52:21.185Z,17.23
2019-02-06T08:54:51.371Z,21.27
2019-02-06T08:57:21.761Z,20.50
2019-02-06T08:59:54.688Z,20.10
2019-02-06T09:02:24.561Z,22.07
2019-02-06T09:04:56.130Z,20.87
2019-02-06T09:07:26.265Z,18.90
2019-02-06T09:09:56.808Z,18.80
2019-02-06T09:12:35.934Z,19.10
2019-02-06T09:15:07.196Z,17.50
2019-02-06T09:17:37.730Z,19.60
2019-02-06T09:20:10.502Z,16.50
2019-02-06T09:22:40.890Z,16.33
2019-02-06T09:25:11.645Z,16.93
2019-02-06T09:27:41.750Z,20.03
2019-02-06T09:30:13.738Z,17.33
2019-02-06T09:32:44.651Z,19.70
2019-02-06T09:35:14.845Z,16.33
2019-02-06T09:37:45.476Z,17.00
2019-02-06T09:40:17.194Z,14.67
2019-02-06T09:42:47.293Z,16.13
2019-02-06T09:45:17.870Z,15.03
2019-02-06T09:47:47.971Z,17.87
2019-02-06T09:50:23.411Z,15.27
2019-02-06T09:52:54.127Z,13.57
2019-02-06T09:55:24.443Z,12.73
2019-02-06T09:57:54.855Z,15.40
2019-02-06T10:00:30.438Z,18.27
2019-02-06T10:03:00.825Z,15.70
2019-02-06T10:05:32.865Z,15.33
2019-02-06T10:08:03.247Z,15.70
2019-02-06T10:10:33.604Z,13.30
2019-02-06T10:13:04.126Z,14.20
2019-02-06T10:15:35.890Z,12.53
2019-02-06T10:18:06.727Z,12.93
2019-02-06T10:20:42.193Z,12.87
2019-02-06T10:23:13.105Z,16.53
2019-02-06T10:25:43.157Z,13.10
2019-02-06T10:28:13.389Z,12.83
2019-02-06T10:30:47.226Z,12.50
2019-02-06T10:33:18.891Z,15.70
2019-02-06T10:35:51.825Z,12.07
2019-02-06T10:38:21.127Z,13.30
2019-02-06T10:40:52.850Z,12.10
2019-02-06T10:43:31.697Z,12.10
2019-02-06T10:45:54.847Z,13.87
2019-02-06T10:48:24.758Z,13.60
2019-02-06T10:50:58.122Z,12.20
2019-02-06T10:53:26.770Z,12.60
2019-02-06T10:55:56.746Z,13.13
2019-02-06T10:58:26.793Z,14.97
2019-02-06T11:01:00.483Z,12.07
2019-02-06T11:03:31.150Z,11.47
2019-02-06T11:06:01.257Z,12.80
2019-02-06T11:08:31.222Z,13.83
2019-02-06T11:11:01.916Z,13.17
2019-02-06T11:13:31.936Z,11.07
2019-02-06T11:16:02.040Z,14.43
2019-02-06T11:18:32.237Z,11.73
2019-02-06T11:21:02.415Z,11.67
2019-02-06T11:23:32.389Z,12.13
2019-02-06T11:26:02.507Z,11.03
2019-02-06T11:28:32.498Z,12.13
2019-02-06T11:31:02.523Z,10.20
2019-02-06T11:33:32.461Z,12.17
2019-02-06T11:36:02.457Z,11.20
2019-02-06T11:38:32.461Z,10.50
2019-02-06T11:41:02.713Z,15.33
2019-02-06T11:43:32.797Z,12.20
2019-02-06T11:46:02.818Z,11.37
2019-02-06T11:48:32.811Z,11.50
2019-02-06T11:51:02.849Z,10.47
2019-02-06T11:53:33.332Z,11.13
2019-02-06T11:56:04.176Z,11.90
2019-02-06T11:58:35.524Z,12.67
2019-02-06T12:01:25.338Z,12.70
2019-02-06T12:03:55.772Z,10.43
2019-02-06T12:06:25.958Z,11.30
2019-02-06T12:08:57.432Z,12.20
2019-02-06T12:11:27.612Z,15.67
2019-02-06T12:13:57.801Z,11.13
2019-02-06T12:16:27.761Z,13.13
2019-02-06T12:18:57.787Z,11.60
2019-02-06T12:21:27.952Z,12.23
2019-02-06T12:23:58.259Z,10.40
2019-02-06T12:26:28.244Z,12.33
2019-02-06T12:28:58.287Z,13.03
2019-02-06T12:31:28.484Z,11.53
2019-02-06T12:33:58.604Z,11.23
2019-02-06T12:36:28.966Z,14.13
2019-02-06T12:38:59.144Z,15.10
2019-02-06T12:41:29.477Z,11.50
2019-02-06T12:43:59.476Z,12.20
2019-02-06T12:46:29.714Z,16.03
2019-02-06T12:48:59.958Z,12.67
2019-02-06T12:51:29.749Z,12.27
2019-02-06T12:54:00.027Z,13.90
2019-02-06T12:56:30.049Z,12.30
2019-02-06T12:59:00.029Z,11.90
2019-02-06T13:01:30.143Z,13.77
2019-02-06T13:04:00.253Z,15.07
2019-02-06T13:06:30.346Z,16.13
2019-02-06T13:09:00.407Z,12.40
2019-02-06T13:11:30.413Z,13.30
2019-02-06T13:14:00.546Z,12.30
2019-02-06T13:16:30.751Z,16.53
2019-02-06T13:19:01.040Z,11.20
2019-02-06T13:21:31.364Z,14.40
2019-02-06T13:24:01.686Z,13.57
2019-02-06T13:26:31.979Z,12.90
2019-02-06T13:29:01.908Z,11.70
2019-02-06T13:31:32.843Z,17.60
2019-02-06T13:34:03.007Z,11.47
2019-02-06T13:36:33.238Z,13.30
2019-02-06T13:39:05.496Z,12.97
2019-02-06T13:41:35.691Z,12.03
2019-02-06T13:44:06.358Z,17.67
2019-02-06T13:46:36.808Z,13.80
2019-02-06T13:49:07.337Z,13.00
2019-02-06T13:51:37.612Z,12.20
2019-02-06T13:54:08.104Z,11.87
2019-02-06T13:56:38.169Z,10.07
2019-02-06T13:59:08.230Z,14.17
2019-02-06T14:01:38.430Z,16.80
2019-02-06T14:04:08.727Z,12.80
2019-02-06T14:06:39.141Z,15.37
2019-02-06T14:09:22.237Z,11.37
2019-02-06T14:11:46.044Z,12.37
2019-02-06T14:14:16.306Z,12.47
2019-02-06T14:16:46.726Z,14.77
2019-02-06T14:19:16.737Z,12.33
2019-02-06T14:21:46.780Z,15.87
2019-02-06T14:24:47.495Z,12.23
2019-02-06T14:27:42.095Z,12.90
2019-02-06T14:30:41.294Z,12.80
2019-02-06T14:33:43.762Z,11.37
2019-02-06T14:36:43.599Z,13.83
2019-02-06T14:39:38.266Z,12.97
2019-02-06T14:42:45.002Z,12.93
2019-02-06T14:46:06.457Z,14.70
2019-02-06T14:49:06.342Z,13.53
2019-02-06T14:52:07.722Z,11.37
2019-02-06T14:54:52.454Z,10.63
2019-02-06T14:57:49.158Z,15.93
2019-02-06T15:00:40.558Z,17.57
2019-02-06T15:03:33.704Z,9.77
2019-02-06T15:06:40.412Z,10.40
2019-02-06T15:09:57.074Z,11.70
2019-02-06T15:13:01.412Z,12.17
2019-02-06T15:16:10.012Z,11.80
2019-02-06T15:19:21.489Z,12.07
2019-02-06T15:22:06.350Z,11.93
2019-02-06T15:25:02.990Z,11.30
2019-02-06T15:27:59.191Z,10.87
2019-02-06T15:31:15.649Z,12.80
2019-02-06T15:34:27.189Z,10.80
2019-02-06T15:37:14.291Z,20.50
2019-02-06T15:40:27.232Z,12.90
2019-02-06T15:43:33.936Z,11.53
2019-02-06T15:46:48.782Z,11.83
2019-02-06T15:49:32.577Z,13.90
2019-02-06T15:53:13.721Z,14.57
2019-02-06T15:56:08.269Z,12.00
2019-02-06T15:59:13.728Z,17.80
2019-02-06T16:02:09.357Z,13.93
2019-02-06T16:05:41.250Z,17.53
2019-02-06T16:08:50.250Z,12.77
2019-02-06T16:11:42.310Z,13.10
2019-02-06T16:15:04.235Z,11.77
2019-02-06T16:18:24.716Z,11.60
2019-02-06T16:21:37.029Z,13.87
2019-02-06T16:25:02.315Z,13.07
2019-02-06T16:28:06.312Z,15.93
2019-02-06T16:31:09.152Z,13.90
2019-02-06T16:34:28.567Z,12.50
2019-02-06T16:37:28.799Z,13.33
2019-02-06T16:40:20.618Z,16.03
2019-02-06T16:43:12.128Z,14.63
2019-02-06T16:46:17.498Z,17.03
2019-02-06T16:49:16.010Z,13.43
2019-02-06T16:52:11.782Z,15.10
2019-02-06T16:55:18.107Z,16.17
2019-02-06T16:58:20.785Z,15.67
2019-02-06T17:01:35.467Z,14.00
2019-02-06T17:04:46.941Z,18.20
2019-02-06T17:07:45.105Z,14.60
2019-02-06T17:10:52.370Z,19.23
2019-02-06T17:14:11.691Z,19.23
2019-02-06T17:17:09.158Z,18.00
2019-02-06T17:20:06.207Z,21.27
2019-02-06T17:22:47.141Z,19.20
2019-02-06T17:25:57.197Z,18.20
2019-02-06T17:28:46.250Z,21.00
2019-02-06T17:31:36.323Z,20.67
2019-02-06T17:34:45.382Z,22.70
2019-02-06T17:37:53.574Z,25.07
2019-02-06T17:40:34.083Z,21.53
2019-02-06T17:43:40.959Z,24.10
2019-02-06T17:46:50.697Z,21.50
2019-02-06T17:49:45.531Z,23.00
2019-02-06T17:53:11.302Z,20.97
2019-02-06T17:55:41.754Z,24.53
2019-02-06T17:58:12.682Z,26.13
2019-02-06T18:01:19.561Z,27.37
2019-02-06T18:03:56.300Z,29.60
2019-02-06T18:06:26.575Z,24.30
2019-02-06T18:08:57.270Z,25.80
2019-02-06T18:11:27.890Z,28.73
2019-02-06T18:13:58.440Z,26.90
2019-02-06T18:16:28.743Z,29.10
2019-02-06T18:18:58.791Z,30.43
2019-02-06T18:21:28.775Z,32.00
2019-02-06T18:23:58.873Z,28.40
2019-02-06T18:26:29.342Z,28.73
2019-02-06T18:28:59.417Z,29.70
2019-02-06T18:31:29.549Z,30.10
2019-02-06T18:33:59.571Z,30.47
2019-02-06T18:36:29.783Z,29.87
2019-02-06T18:38:59.965Z,31.67
2019-02-06T18:41:30.098Z,27.90
2019-02-06T18:44:00.405Z,35.70
2019-02-06T18:46:30.530Z,27.47
2019-02-06T18:49:00.610Z,32.53
2019-02-06T18:51:31.019Z,32.27
2019-02-06T18:54:01.097Z,30.20
2019-02-06T18:56:31.411Z,30.03
2019-02-06T18:59:01.558Z,28.23
2019-02-06T19:01:31.998Z,29.87
2019-02-06T19:04:02.729Z,29.97
2019-02-06T19:06:32.838Z,29.70
2019-02-06T19:09:03.681Z,27.40
2019-02-06T19:11:33.817Z,31.10
2019-02-06T19:14:04.717Z,30.07
2019-02-06T19:16:35.156Z,35.03
2019-02-06T19:19:06.232Z,34.73
2019-02-06T19:21:38.439Z,31.43
2019-02-06T19:24:09.567Z,38.10
2019-02-06T19:26:39.920Z,33.50
2019-02-06T19:29:11.732Z,35.50
2019-02-06T19:31:47.352Z,33.03
2019-02-06T19:34:17.572Z,31.50
2019-02-06T19:36:47.695Z,34.47
2019-02-06T19:39:17.711Z,36.63
2019-02-06T19:41:47.908Z,34.10
2019-02-06T19:44:18.189Z,31.70
2019-02-06T19:46:48.951Z,30.50
2019-02-06T19:49:19.369Z,30.40
2019-02-06T19:51:49.365Z,28.73
2019-02-06T19:54:19.698Z,38.57
2019-02-06T19:56:50.086Z,31.10
2019-02-06T19:59:20.298Z,33.57
2019-02-06T20:01:50.547Z,30.40
2019-02-06T20:04:20.890Z,33.83
2019-02-06T20:06:50.954Z,31.93
2019-02-06T20:09:21.414Z,30.77
2019-02-06T20:11:51.554Z,33.30
2019-02-06T20:14:22.344Z,34.80
2019-02-06T20:16:53.918Z,31.60
2019-02-06T20:19:24.576Z,28.80
2019-02-06T20:21:54.606Z,29.67
2019-02-06T20:24:24.696Z,36.80
2019-02-06T20:26:54.939Z,27.80
2019-02-06T20:29:25.456Z,27.90
2019-02-06T20:31:55.576Z,31.53
2019-02-06T20:34:26.098Z,33.23
2019-02-06T20:36:56.070Z,34.60
2019-02-06T20:39:26.267Z,32.70
2019-02-06T20:41:56.385Z,33.23
2019-02-06T20:44:29.560Z,28.50
2019-02-06T20:46:58.665Z,30.10
2019-02-06T20:49:30.832Z,31.40
2019-02-06T20:52:01.084Z,30.47
2019-02-06T20:54:31.511Z,29.63
2019-02-06T20:57:11.800Z,28.83
2019-02-06T20:59:33.473Z,34.63
2019-02-06T21:02:03.639Z,31.87
2019-02-06T21:04:34.032Z,28.60
2019-02-06T21:07:04.866Z,29.80
2019-02-06T21:09:34.905Z,30.70
2019-02-06T21:12:05.317Z,30.10
2019-02-06T21:14:35.828Z,29.47
2019-02-06T21:17:05.953Z,32.47
2019-02-06T21:19:36.421Z,31.83
2019-02-06T21:22:06.758Z,27.40
2019-02-06T21:24:37.230Z,29.93
2019-02-06T21:27:07.840Z,32.50
2019-02-06T21:29:38.747Z,31.80
2019-02-06T21:32:09.859Z,29.87
2019-02-06T21:34:40.005Z,30.17
2019-02-06T21:37:10.634Z,34.97
2019-02-06T21:39:40.817Z,33.27
2019-02-06T21:42:10.917Z,32.80
2019-02-06T21:44:41.358Z,35.30
2019-02-06T21:47:11.677Z,33.07
2019-02-06T21:49:42.009Z,33.97
2019-02-06T21:52:12.362Z,35.87
2019-02-06T21:54:42.492Z,32.87
2019-02-06T21:57:12.420Z,34.70
2019-02-06T21:59:42.340Z,35.20
2019-02-06T22:02:12.341Z,38.83
2019-02-06T22:04:42.580Z,38.63
2019-02-06T22:07:12.977Z,35.27
2019-02-06T22:09:43.268Z,37.77
2019-02-06T22:12:13.518Z,39.37
2019-02-06T22:14:44.242Z,37.23
2019-02-06T22:17:14.476Z,38.53
2019-02-06T22:19:44.537Z,36.63
2019-02-06T22:22:14.662Z,36.10
2019-02-06T22:24:44.722Z,32.27
2019-02-06T22:27:15.195Z,34.57
2019-02-06T22:29:45.802Z,32.50
2019-02-06T22:32:15.947Z,35.30
2019-02-06T22:34:46.297Z,37.80
2019-02-06T22:37:16.159Z,36.30
2019-02-06T22:39:46.022Z,33.23
2019-02-06T22:42:16.508Z,36.90
2019-02-06T22:44:46.908Z,39.40
2019-02-06T22:47:16.853Z,39.63
2019-02-06T22:49:46.936Z,39.60
2019-02-06T22:52:17.264Z,36.97
2019-02-06T22:54:47.306Z,41.83
2019-02-06T22:57:17.603Z,39.73
2019-02-06T22:59:47.535Z,38.73
2019-02-06T23:02:17.693Z,44.47
2019-02-06T23:04:47.865Z,39.63
2019-02-06T23:07:18.211Z,42.40
2019-02-06T23:09:48.673Z,40.60
2019-02-06T23:12:18.885Z,41.67
2019-02-06T23:14:49.083Z,43.63
2019-02-06T23:17:19.305Z,44.90
2019-02-06T23:19:49.252Z,40.97
2019-02-06T23:22:19.256Z,43.67
2019-02-06T23:24:49.420Z,44.03
2019-02-06T23:27:20.469Z,45.17
2019-02-06T23:29:50.571Z,42.13
2019-02-06T23:32:20.793Z,37.27
2019-02-06T23:34:50.709Z,43.23
2019-02-06T23:37:22.834Z,40.70
2019-02-06T23:39:53.043Z,44.17
2019-02-06T23:42:23.344Z,42.53
2019-02-06T23:44:53.283Z,42.10
2019-02-06T23:47:23.442Z,41.13
2019-02-06T23:49:53.460Z,51.90
2019-02-06T23:52:23.966Z,43.77
2019-02-06T23:54:53.981Z,45.90
2019-02-06T23:57:24.215Z,43.73
2019-02-06T23:59:54.381Z,44.27
